createdAt,value
2023-04-08T00:00:31.702Z,14.50
2023-04-08T00:02:58.621Z,15.43
2023-04-08T00:05:25.486Z,14.40
2023-04-08T00:07:52.296Z,15.75
2023-04-08T00:10:19.511Z,15.88
2023-04-08T00:12:48.706Z,15.15
2023-04-08T00:15:15.661Z,17.13
2023-04-08T00:17:42.633Z,16.50
2023-04-08T00:20:09.940Z,17.40
2023-04-08T00:22:36.825Z,15.85
2023-04-08T00:25:06.685Z,17.58
2023-04-08T00:27:33.844Z,15.82
2023-04-08T00:30:01.611Z,17.88
2023-04-08T00:32:29.177Z,17.05
2023-04-08T00:34:56.411Z,17.55
2023-04-08T00:37:23.224Z,17.52
2023-04-08T00:39:50.426Z,16.45
2023-04-08T00:42:17.578Z,17.08
2023-04-08T00:44:44.363Z,16.77
2023-04-08T00:47:15.598Z,17.20
2023-04-08T00:49:43.357Z,16.55
2023-04-08T00:52:10.548Z,16.48
2023-04-08T00:54:38.343Z,17.23
2023-04-08T00:57:06.463Z,16.52
2023-04-08T00:59:35.946Z,16.73
2023-04-08T01:02:11.749Z,16.25
2023-04-08T01:04:50.583Z,16.88
2023-04-08T01:07:17.255Z,16.63
2023-04-08T01:09:51.147Z,16.55
2023-04-08T01:12:30.409Z,16.33
2023-04-08T01:15:05.555Z,16.67
2023-04-08T01:20:01.817Z,16.55
2023-04-08T01:22:43.653Z,16.80
2023-04-08T01:25:24.388Z,18.48
2023-04-08T01:27:56.406Z,16.05
2023-04-08T01:30:24.644Z,17.10
2023-04-08T01:32:54.250Z,16.67
2023-04-08T01:35:21.861Z,18.45
2023-04-08T01:37:51.577Z,17.60
2023-04-08T01:40:20.038Z,17.25
2023-04-08T01:42:49.698Z,16.83
2023-04-08T01:45:17.917Z,15.32
2023-04-08T01:47:48.736Z,17.40
2023-04-08T01:50:16.799Z,17.13
2023-04-08T01:52:49.115Z,17.20
2023-04-08T01:55:17.124Z,16.88
2023-04-08T01:57:51.146Z,17.50
2023-04-08T02:00:21.048Z,15.70
2023-04-08T02:02:49.161Z,16.58
2023-04-08T02:05:16.395Z,16.92
2023-04-08T02:07:43.220Z,16.83
2023-04-08T02:10:10.362Z,16.63
2023-04-08T02:12:37.332Z,17.15
2023-04-08T02:15:04.476Z,18.20
2023-04-08T02:17:44.147Z,18.75
2023-04-08T02:20:16.956Z,17.45
2023-04-08T02:23:19.803Z,17.85
2023-04-08T02:25:48.607Z,16.85
2023-04-08T02:28:17.404Z,16.63
2023-04-08T02:30:50.950Z,18.10
2023-04-08T02:33:21.047Z,17.17
2023-04-08T02:35:54.705Z,17.63
2023-04-08T02:38:23.863Z,17.15
2023-04-08T02:40:51.504Z,19.17
2023-04-08T02:43:18.413Z,17.83
2023-04-08T02:45:45.584Z,19.00
2023-04-08T02:48:12.453Z,18.17
2023-04-08T02:50:40.649Z,17.88
2023-04-08T02:53:08.842Z,17.67
2023-04-08T02:55:35.756Z,17.80
2023-04-08T02:58:02.561Z,16.73
2023-04-08T03:00:29.366Z,17.42
2023-04-08T03:02:56.608Z,17.90
2023-04-08T03:05:23.568Z,16.30
2023-04-08T03:07:50.448Z,18.85
2023-04-08T03:10:17.315Z,18.02
2023-04-08T03:12:44.222Z,19.90
2023-04-08T03:15:10.990Z,19.70
2023-04-08T03:17:37.865Z,18.48
2023-04-08T03:20:05.164Z,17.08
2023-04-08T03:22:32.234Z,18.50
2023-04-08T03:24:59.035Z,20.30
2023-04-08T03:27:26.245Z,18.25
2023-04-08T03:29:53.155Z,19.40
2023-04-08T03:32:20.344Z,17.25
2023-04-08T03:34:47.093Z,16.80
2023-04-08T03:37:13.878Z,14.70
2023-04-08T03:39:40.592Z,15.57
2023-04-08T03:42:07.358Z,15.07
2023-04-08T03:44:34.098Z,15.48
2023-04-08T03:47:00.897Z,16.15
2023-04-08T03:49:27.675Z,15.10
2023-04-08T03:51:54.437Z,15.77
2023-04-08T03:54:21.196Z,16.60
2023-04-08T03:56:49.390Z,16.85
2023-04-08T03:59:16.137Z,15.07
2023-04-08T04:01:42.913Z,15.30
2023-04-08T04:04:09.970Z,14.85
2023-04-08T04:06:37.727Z,15.80
2023-04-08T04:09:04.694Z,15.82
2023-04-08T04:11:31.421Z,15.43
2023-04-08T04:13:58.143Z,14.05
2023-04-08T04:16:25.069Z,15.77
2023-04-08T04:18:53.506Z,15.75
2023-04-08T04:21:20.771Z,15.45
2023-04-08T04:23:47.610Z,16.20
2023-04-08T04:26:15.160Z,16.38
2023-04-08T04:28:41.988Z,14.15
2023-04-08T04:31:08.809Z,14.38
2023-04-08T04:33:35.712Z,13.25
2023-04-08T04:36:02.789Z,14.85
2023-04-08T04:38:29.765Z,14.75
2023-04-08T04:40:57.820Z,14.13
2023-04-08T04:43:24.562Z,15.02
2023-04-08T04:45:51.610Z,14.75
2023-04-08T04:48:18.408Z,15.80
2023-04-08T04:50:45.559Z,15.77
2023-04-08T04:53:12.411Z,15.65
2023-04-08T04:55:39.394Z,16.05
2023-04-08T04:58:06.648Z,17.40
2023-04-08T05:00:33.447Z,17.73
2023-04-08T05:03:00.541Z,16.98
2023-04-08T05:05:27.459Z,15.52
2023-04-08T05:07:54.246Z,14.35
2023-04-08T05:10:21.273Z,15.60
2023-04-08T05:12:48.105Z,14.38
2023-04-08T05:15:15.027Z,14.80
2023-04-08T05:17:41.798Z,14.93
2023-04-08T05:20:08.867Z,14.80
2023-04-08T05:22:35.721Z,16.08
2023-04-08T05:25:02.661Z,14.93
2023-04-08T05:27:29.556Z,14.60
2023-04-08T05:29:56.410Z,15.00
2023-04-08T05:32:23.236Z,15.00
2023-04-08T05:34:49.955Z,15.30
2023-04-08T05:37:16.739Z,15.63
2023-04-08T05:39:43.541Z,15.02
2023-04-08T05:42:10.992Z,15.98
2023-04-08T05:44:38.688Z,14.07
2023-04-08T05:47:05.497Z,15.98
2023-04-08T05:49:33.328Z,15.45
2023-04-08T05:52:00.101Z,14.38
2023-04-08T05:54:26.853Z,14.77
2023-04-08T05:56:53.614Z,14.15
2023-04-08T05:59:20.399Z,13.75
2023-04-08T06:01:47.241Z,16.25
2023-04-08T06:04:14.269Z,16.77
2023-04-08T06:06:41.224Z,17.88
2023-04-08T06:09:08.835Z,17.80
2023-04-08T06:11:35.876Z,16.85
2023-04-08T06:14:02.634Z,15.02
2023-04-08T06:16:29.464Z,17.10
2023-04-08T06:18:56.278Z,14.32
2023-04-08T06:21:23.133Z,16.95
2023-04-08T06:23:50.150Z,16.10
2023-04-08T06:26:16.982Z,15.60
2023-04-08T06:28:43.766Z,16.65
2023-04-08T06:31:10.815Z,14.88
2023-04-08T06:33:37.628Z,14.50
2023-04-08T06:36:08.398Z,16.75
2023-04-08T06:38:35.571Z,16.38
2023-04-08T06:41:06.479Z,16.27
2023-04-08T06:43:34.397Z,18.20
2023-04-08T06:46:01.596Z,15.63
2023-04-08T06:48:30.209Z,15.80
2023-04-08T06:50:58.533Z,16.23
2023-04-08T06:53:26.231Z,15.43
2023-04-08T06:55:53.379Z,17.50
2023-04-08T06:58:20.389Z,16.05
2023-04-08T07:00:47.841Z,15.32
2023-04-08T07:03:14.868Z,16.17
2023-04-08T07:05:42.127Z,17.30
2023-04-08T07:08:09.170Z,16.33
2023-04-08T07:10:36.229Z,16.75
2023-04-08T07:13:03.438Z,16.83
2023-04-08T07:15:30.514Z,16.35
2023-04-08T07:17:58.705Z,15.45
2023-04-08T07:20:26.190Z,15.43
2023-04-08T07:22:53.052Z,14.95
2023-04-08T07:25:20.083Z,15.52
2023-04-08T07:27:46.846Z,13.90
2023-04-08T07:30:13.721Z,12.68
2023-04-08T07:32:41.013Z,13.35
2023-04-08T07:35:08.139Z,13.07
2023-04-08T07:37:34.914Z,13.35
2023-04-08T07:40:01.753Z,13.95
2023-04-08T07:42:29.108Z,13.90
2023-04-08T07:44:56.065Z,14.35
2023-04-08T07:47:22.866Z,13.10
2023-04-08T07:49:49.777Z,15.45
2023-04-08T07:52:16.586Z,15.52
2023-04-08T07:54:43.502Z,15.23
2023-04-08T07:57:10.327Z,14.55
2023-04-08T07:59:37.352Z,15.93
2023-04-08T08:02:04.521Z,16.70
2023-04-08T08:04:31.769Z,15.00
2023-04-08T08:06:58.773Z,16.20
2023-04-08T08:09:25.843Z,15.93
2023-04-08T08:11:52.616Z,14.95
2023-04-08T08:14:19.381Z,15.75
2023-04-08T08:16:49.809Z,15.75
2023-04-08T08:19:19.081Z,15.40
2023-04-08T08:21:46.378Z,14.98
2023-04-08T08:24:13.453Z,15.63
2023-04-08T08:26:40.704Z,14.55
2023-04-08T08:29:08.771Z,15.60
2023-04-08T08:31:35.878Z,16.35
2023-04-08T08:34:03.108Z,15.90
2023-04-08T08:36:29.910Z,18.17
2023-04-08T08:38:56.695Z,16.65
2023-04-08T08:41:23.527Z,17.55
2023-04-08T08:43:50.632Z,15.57
2023-04-08T08:46:19.198Z,16.58
2023-04-08T08:48:46.571Z,16.73
2023-04-08T08:51:14.118Z,16.98
2023-04-08T08:53:45.204Z,16.83
2023-04-08T08:58:45.074Z,17.52
2023-04-08T09:01:32.482Z,17.70
2023-04-08T09:04:26.816Z,16.48
2023-04-08T09:07:11.288Z,17.58
2023-04-08T09:09:51.995Z,15.65
2023-04-08T09:12:19.012Z,17.02
2023-04-08T09:14:46.406Z,16.33
2023-04-08T09:17:13.229Z,16.00
2023-04-08T09:19:40.339Z,17.42
2023-04-08T09:22:11.462Z,16.10
2023-04-08T09:24:38.647Z,17.92
2023-04-08T09:27:05.763Z,18.45
2023-04-08T09:29:35.270Z,15.75
2023-04-08T09:32:04.154Z,16.23
2023-04-08T09:34:32.526Z,17.15
2023-04-08T09:36:59.443Z,16.88
2023-04-08T09:39:26.415Z,15.27
2023-04-08T09:41:55.762Z,15.98
2023-04-08T09:44:26.949Z,15.20
2023-04-08T09:47:08.334Z,16.95
2023-04-08T09:49:44.785Z,16.33
2023-04-08T09:52:22.445Z,16.88
2023-04-08T09:54:59.722Z,16.08
2023-04-08T09:57:46.664Z,16.40
2023-04-08T10:00:15.566Z,16.30
2023-04-08T10:03:07.763Z,17.02
2023-04-08T10:05:39.049Z,16.38
2023-04-08T10:08:07.291Z,16.48
2023-04-08T10:10:40.128Z,15.50
2023-04-08T10:13:10.095Z,16.15
2023-04-08T10:15:38.385Z,16.75
2023-04-08T10:18:08.523Z,17.23
2023-04-08T10:20:38.339Z,16.70
2023-04-08T10:23:13.781Z,16.80
2023-04-08T10:25:48.509Z,16.45
2023-04-08T10:28:16.228Z,18.42
2023-04-08T10:30:46.972Z,16.48
2023-04-08T10:33:20.906Z,17.05
2023-04-08T10:35:49.743Z,16.30
2023-04-08T10:38:17.678Z,15.88
2023-04-08T10:40:45.011Z,15.75
2023-04-08T10:43:13.688Z,13.90
2023-04-08T10:45:41.149Z,15.73
2023-04-08T10:48:14.660Z,13.35
2023-04-08T10:50:41.894Z,14.07
2023-04-08T10:53:08.753Z,12.55
2023-04-08T10:55:35.626Z,13.75
2023-04-08T10:58:09.393Z,12.80
2023-04-08T11:00:38.404Z,14.63
2023-04-08T11:03:08.246Z,12.80
2023-04-08T11:05:39.458Z,13.98
2023-04-08T11:08:06.634Z,15.35
2023-04-08T11:10:41.301Z,15.98
2023-04-08T11:13:09.992Z,15.13
2023-04-08T11:15:38.528Z,14.27
2023-04-08T11:18:06.445Z,18.52
2023-04-08T11:20:37.041Z,16.98
2023-04-08T11:23:03.748Z,19.13
2023-04-08T11:25:30.874Z,18.25
2023-04-08T11:27:57.987Z,17.42
2023-04-08T11:30:24.948Z,19.73
2023-04-08T11:32:52.321Z,20.65
2023-04-08T11:35:20.441Z,17.73
2023-04-08T11:37:47.842Z,15.75
2023-04-08T11:40:20.824Z,18.60
2023-04-08T11:42:47.821Z,17.10
2023-04-08T11:45:16.728Z,18.92
2023-04-08T11:47:44.799Z,18.00
2023-04-08T11:50:11.859Z,19.90
2023-04-08T11:52:49.119Z,20.15
2023-04-08T11:55:42.300Z,19.70
2023-04-08T11:58:09.072Z,18.63
2023-04-08T12:00:37.220Z,18.02
2023-04-08T12:03:04.302Z,18.00
2023-04-08T12:05:31.111Z,17.15
2023-04-08T12:07:57.988Z,17.15
2023-04-08T12:10:27.503Z,18.75
2023-04-08T12:12:54.522Z,19.35
2023-04-08T12:15:21.309Z,18.65
2023-04-08T12:17:48.115Z,18.27
2023-04-08T12:20:17.061Z,16.88
2023-04-08T12:22:43.794Z,17.67
2023-04-08T12:25:10.736Z,18.17
2023-04-08T12:27:37.470Z,16.95
2023-04-08T12:30:04.702Z,17.38
2023-04-08T12:32:31.754Z,16.17
2023-04-08T12:34:58.586Z,16.90
2023-04-08T12:37:25.351Z,15.10
2023-04-08T12:39:52.420Z,15.48
2023-04-08T12:42:19.280Z,14.73
2023-04-08T12:44:46.368Z,16.17
2023-04-08T12:47:13.346Z,16.83
2023-04-08T12:52:09.950Z,16.10
2023-04-08T12:54:36.703Z,15.93
2023-04-08T12:57:04.593Z,15.75
2023-04-08T12:59:33.442Z,16.48
2023-04-08T13:02:00.304Z,16.77
2023-04-08T13:04:27.114Z,16.85
2023-04-08T13:06:53.859Z,18.00
2023-04-08T13:09:20.849Z,17.00
2023-04-08T13:11:47.595Z,15.60
2023-04-08T13:14:14.380Z,15.52
2023-04-08T13:16:41.291Z,15.65
2023-04-08T13:19:08.093Z,16.15
2023-04-08T13:21:34.897Z,15.90
2023-04-08T13:24:02.217Z,16.17
2023-04-08T13:26:29.180Z,16.55
2023-04-08T13:28:57.624Z,16.02
2023-04-08T13:31:25.462Z,16.63
2023-04-08T13:33:53.863Z,16.02
2023-04-08T13:36:22.124Z,15.95
2023-04-08T13:38:49.112Z,14.27
2023-04-08T13:41:16.065Z,14.77
2023-04-08T13:43:43.429Z,14.90
2023-04-08T13:46:10.272Z,14.20
2023-04-08T13:48:37.106Z,14.48
2023-04-08T13:51:03.957Z,13.57
2023-04-08T13:53:30.891Z,14.10
2023-04-08T13:55:59.069Z,14.98
2023-04-08T13:58:28.630Z,14.98
2023-04-08T14:00:55.957Z,13.15
2023-04-08T14:03:22.857Z,13.80
2023-04-08T14:05:50.949Z,14.23
2023-04-08T14:08:24.990Z,13.65
2023-04-08T14:10:52.386Z,12.73
2023-04-08T14:13:19.218Z,12.05
2023-04-08T14:15:46.944Z,12.85
2023-04-08T14:18:14.033Z,12.23
2023-04-08T14:20:41.424Z,12.07
2023-04-08T14:23:08.208Z,13.55
2023-04-08T14:25:35.128Z,11.77
2023-04-08T14:28:01.883Z,12.00
2023-04-08T14:30:28.853Z,13.05
2023-04-08T14:32:55.818Z,12.52
2023-04-08T14:35:22.958Z,12.90
2023-04-08T14:37:49.764Z,13.93
2023-04-08T14:40:16.598Z,12.73
2023-04-08T14:42:45.362Z,12.20
2023-04-08T14:45:12.279Z,12.27
2023-04-08T14:47:39.067Z,12.32
2023-04-08T14:50:06.559Z,13.63
2023-04-08T14:52:33.303Z,13.02
2023-04-08T14:55:00.077Z,12.40
2023-04-08T14:57:27.270Z,13.18
2023-04-08T14:59:54.367Z,14.90
2023-04-08T15:02:21.289Z,13.55
2023-04-08T15:04:48.116Z,13.00
2023-04-08T15:07:14.887Z,13.75
2023-04-08T15:09:41.873Z,14.40
2023-04-08T15:12:08.642Z,14.15
2023-04-08T15:14:35.477Z,13.90
2023-04-08T15:17:02.227Z,13.52
2023-04-08T15:19:28.989Z,13.13
2023-04-08T15:21:55.858Z,12.60
2023-04-08T15:24:22.774Z,13.75
2023-04-08T15:26:49.552Z,12.20
2023-04-08T15:29:17.006Z,12.93
2023-04-08T15:31:43.883Z,13.50
2023-04-08T15:34:10.949Z,12.57
2023-04-08T15:36:37.823Z,12.95
2023-04-08T15:39:04.730Z,13.50
2023-04-08T15:42:06.025Z,13.00
2023-04-08T15:44:33.228Z,13.60
2023-04-08T15:47:00.156Z,14.65
2023-04-08T15:49:26.964Z,13.27
2023-04-08T15:51:53.780Z,13.57
2023-04-08T15:54:20.633Z,13.75
2023-04-08T15:56:47.416Z,15.02
2023-04-08T15:59:14.391Z,13.57
2023-04-08T16:01:41.993Z,14.85
2023-04-08T16:04:08.936Z,15.52
2023-04-08T16:06:36.815Z,14.85
2023-04-08T16:09:03.704Z,14.75
2023-04-08T16:11:30.445Z,16.00
2023-04-08T16:13:57.324Z,19.20
2023-04-08T16:16:24.153Z,18.48
2023-04-08T16:21:19.234Z,18.75
2023-04-08T16:23:49.161Z,19.90
2023-04-08T16:26:16.038Z,18.23
2023-04-08T16:28:43.385Z,17.05
2023-04-08T16:31:10.218Z,19.80
2023-04-08T16:33:37.313Z,18.63
2023-04-08T16:36:04.429Z,17.52
2023-04-08T16:38:31.349Z,18.92
2023-04-08T16:40:58.816Z,18.70
2023-04-08T16:43:26.002Z,17.35
2023-04-08T16:45:53.227Z,17.10
2023-04-08T16:48:20.103Z,18.90
2023-04-08T16:50:47.674Z,17.33
2023-04-08T16:53:14.472Z,15.05
2023-04-08T16:55:41.344Z,19.17
2023-04-08T16:58:08.196Z,17.23
2023-04-08T17:00:34.987Z,15.88
2023-04-08T17:03:02.241Z,16.33
2023-04-08T17:05:29.448Z,13.52
2023-04-08T17:07:58.934Z,16.23
2023-04-08T17:10:25.700Z,15.38
2023-04-08T17:12:52.585Z,16.45
2023-04-08T17:15:19.432Z,16.63
2023-04-08T17:17:47.804Z,16.38
2023-04-08T17:20:14.685Z,17.58
2023-04-08T17:22:42.015Z,21.08
2023-04-08T17:25:09.051Z,25.65
2023-04-08T17:27:35.790Z,25.27
2023-04-08T17:30:02.761Z,20.15
2023-04-08T17:32:29.556Z,25.08
2023-04-08T17:34:56.280Z,28.77
2023-04-08T17:37:23.109Z,27.02
2023-04-08T17:39:51.451Z,22.77
2023-04-08T17:42:22.400Z,21.35
2023-04-08T17:44:49.243Z,21.42
2023-04-08T17:47:16.221Z,41.33
2023-04-08T17:49:43.029Z,20.40
2023-04-08T17:52:09.861Z,21.48
2023-04-08T17:54:36.649Z,22.75
2023-04-08T17:57:03.507Z,23.23
2023-04-08T17:59:30.274Z,21.92
2023-04-08T18:01:57.057Z,23.40
2023-04-08T18:04:23.962Z,29.17
2023-04-08T18:06:50.857Z,23.92
2023-04-08T18:09:17.639Z,24.65
2023-04-08T18:11:44.417Z,23.65
2023-04-08T18:14:12.553Z,26.35
2023-04-08T18:16:39.350Z,22.30
2023-04-08T18:19:06.353Z,20.90
2023-04-08T18:21:33.105Z,21.40
2023-04-08T18:23:59.854Z,20.10
2023-04-08T18:26:28.234Z,21.85
2023-04-08T18:28:55.278Z,22.15
2023-04-08T18:31:22.204Z,19.13
2023-04-08T18:33:49.372Z,20.20
2023-04-08T18:36:17.386Z,21.88
2023-04-08T18:38:44.768Z,20.38
2023-04-08T18:41:13.240Z,18.30
2023-04-08T18:43:40.636Z,21.00
2023-04-08T18:46:07.745Z,21.63
2023-04-08T18:48:34.511Z,20.60
2023-04-08T18:51:04.279Z,23.27
2023-04-08T18:53:31.208Z,23.92
2023-04-08T18:55:58.374Z,22.25
2023-04-08T18:58:25.360Z,24.98
2023-04-08T19:00:52.222Z,26.83
2023-04-08T19:03:19.364Z,23.75
2023-04-08T19:05:46.611Z,30.25
2023-04-08T19:08:13.430Z,28.63
2023-04-08T19:10:40.792Z,23.90
2023-04-08T19:13:07.553Z,24.00
2023-04-08T19:15:34.305Z,26.63
2023-04-08T19:18:01.132Z,24.10
2023-04-08T19:20:28.501Z,20.27
2023-04-08T19:22:55.959Z,21.05
2023-04-08T19:25:22.879Z,20.13
2023-04-08T19:27:49.760Z,19.35
2023-04-08T19:30:16.669Z,18.77
2023-04-08T19:32:43.478Z,18.70
2023-04-08T19:35:13.419Z,18.50
2023-04-08T19:37:40.697Z,20.05
2023-04-08T19:40:08.832Z,19.95
2023-04-08T19:42:36.325Z,19.95
2023-04-08T19:45:03.716Z,18.52
2023-04-08T19:47:30.555Z,18.98
2023-04-08T19:49:58.246Z,17.80
2023-04-08T19:52:25.479Z,17.10
2023-04-08T19:54:52.996Z,17.90
2023-04-08T19:57:20.565Z,16.75
2023-04-08T19:59:50.007Z,16.33
2023-04-08T20:02:16.924Z,16.90
2023-04-08T20:04:45.123Z,17.40
2023-04-08T20:07:12.671Z,17.67
2023-04-08T20:09:39.374Z,15.85
2023-04-08T20:12:06.318Z,16.52
2023-04-08T20:14:34.082Z,17.40
2023-04-08T20:17:01.080Z,16.83
2023-04-08T20:19:28.583Z,17.90
2023-04-08T20:21:55.322Z,17.75
2023-04-08T20:24:22.459Z,17.58
2023-04-08T20:26:49.855Z,18.58
2023-04-08T20:29:16.741Z,19.15
2023-04-08T20:31:44.808Z,17.73
2023-04-08T20:34:12.814Z,17.55
2023-04-08T20:36:40.012Z,18.05
2023-04-08T20:39:10.688Z,24.10
2023-04-08T20:41:37.995Z,24.13
2023-04-08T20:44:10.343Z,22.15
2023-04-08T20:46:37.899Z,20.63
2023-04-08T20:49:05.186Z,21.52
2023-04-08T20:51:35.633Z,21.50
2023-04-08T20:54:02.440Z,20.92
2023-04-08T20:56:29.661Z,19.67
2023-04-08T20:58:58.196Z,21.90
2023-04-08T21:01:27.012Z,21.75
2023-04-08T21:03:54.689Z,21.00
2023-04-08T21:06:22.206Z,25.50
2023-04-08T21:08:49.654Z,22.48
2023-04-08T21:11:17.148Z,21.73
2023-04-08T21:13:44.984Z,20.38
2023-04-08T21:16:12.748Z,23.40
2023-04-08T21:18:40.098Z,20.90
2023-04-08T21:21:06.883Z,22.75
2023-04-08T21:23:33.634Z,22.48
2023-04-08T21:26:02.724Z,23.50
2023-04-08T21:28:30.357Z,20.75
2023-04-08T21:31:06.857Z,22.63
2023-04-08T21:33:33.660Z,21.25
2023-04-08T21:36:00.605Z,21.05
2023-04-08T21:38:27.486Z,20.50
2023-04-08T21:40:54.194Z,22.75
2023-04-08T21:43:21.837Z,20.30
2023-04-08T21:45:48.668Z,21.80
2023-04-08T21:48:15.631Z,20.20
2023-04-08T21:50:42.403Z,18.25
2023-04-08T21:53:09.149Z,19.13
2023-04-08T21:55:35.984Z,17.33
2023-04-08T21:58:02.756Z,16.50
2023-04-08T22:00:30.217Z,16.42
2023-04-08T22:02:57.074Z,15.80
2023-04-08T22:05:23.867Z,17.30
2023-04-08T22:07:50.613Z,15.15
2023-04-08T22:10:17.470Z,15.93
2023-04-08T22:12:44.220Z,16.30
2023-04-08T22:15:11.243Z,15.00
2023-04-08T22:17:38.105Z,15.65
2023-04-08T22:20:05.283Z,16.20
2023-04-08T22:22:32.155Z,15.65
2023-04-08T22:24:58.971Z,16.17
2023-04-08T22:27:27.646Z,16.23
2023-04-08T22:29:54.373Z,16.85
2023-04-08T22:32:21.115Z,15.95
2023-04-08T22:34:47.857Z,18.20
2023-04-08T22:37:14.567Z,16.80
2023-04-08T22:39:41.322Z,16.00
2023-04-08T22:42:08.027Z,16.30
2023-04-08T22:44:34.815Z,17.98
2023-04-08T22:47:01.599Z,18.40
2023-04-08T22:49:28.401Z,16.67
2023-04-08T22:51:55.268Z,17.50
2023-04-08T22:54:22.471Z,17.13
2023-04-08T22:56:49.240Z,17.33
2023-04-08T22:59:16.204Z,18.08
2023-04-08T23:01:44.113Z,18.02
2023-04-08T23:04:11.134Z,15.05
2023-04-08T23:06:37.919Z,16.02
2023-04-08T23:09:04.690Z,14.35
2023-04-08T23:11:31.451Z,16.48
2023-04-08T23:13:58.166Z,16.45
2023-04-08T23:16:25.023Z,15.68
2023-04-08T23:18:52.039Z,16.88
2023-04-08T23:21:20.313Z,15.75
2023-04-08T23:23:47.053Z,15.55
2023-04-08T23:26:18.079Z,15.38
2023-04-08T23:28:45.017Z,15.63
2023-04-08T23:31:12.023Z,15.05
2023-04-08T23:33:38.945Z,14.85
2023-04-08T23:36:09.776Z,14.88
2023-04-08T23:38:39.944Z,14.82
2023-04-08T23:41:07.674Z,14.90
2023-04-08T23:43:34.872Z,15.02
2023-04-08T23:46:01.626Z,14.68
2023-04-08T23:48:28.337Z,15.27
2023-04-08T23:50:56.061Z,15.05
2023-04-08T23:53:23.093Z,14.80
2023-04-08T23:55:49.858Z,14.95
2023-04-08T23:58:16.652Z,14.75
